createdAt,value
2023-08-02T00:02:03.088Z,6.22
2023-08-02T00:04:29.621Z,5.45
2023-08-02T00:06:56.132Z,10.95
2023-08-02T00:09:22.709Z,5.95
2023-08-02T00:11:52.030Z,5.68
2023-08-02T00:14:18.497Z,5.78
2023-08-02T00:16:45.639Z,7.30
2023-08-02T00:19:15.349Z,7.95
2023-08-02T00:21:42.419Z,6.72
2023-08-02T00:24:09.100Z,7.43
2023-08-02T00:26:35.650Z,6.97
2023-08-02T00:29:02.203Z,5.55
2023-08-02T00:31:28.902Z,11.52
2023-08-02T00:33:55.344Z,9.02
2023-08-02T00:36:21.899Z,9.23
2023-08-02T00:38:48.500Z,5.25
2023-08-02T00:42:01.760Z,6.38
2023-08-02T00:44:28.237Z,7.20
2023-08-02T00:46:54.990Z,6.70
2023-08-02T00:49:21.958Z,7.32
2023-08-02T00:51:48.501Z,8.38
2023-08-02T00:54:15.028Z,7.47
2023-08-02T00:56:42.016Z,11.25
2023-08-02T00:59:08.691Z,10.25
2023-08-02T01:01:35.433Z,11.50
2023-08-02T01:04:02.002Z,12.60
2023-08-02T01:06:44.565Z,10.38
2023-08-02T01:09:26.924Z,9.15
2023-08-02T01:12:08.317Z,11.38
2023-08-02T01:14:46.765Z,10.55
2023-08-02T01:17:21.520Z,11.20
2023-08-02T01:19:48.820Z,10.25
2023-08-02T01:22:15.339Z,7.97
2023-08-02T01:24:41.937Z,11.00
2023-08-02T01:27:22.219Z,11.10
2023-08-02T01:29:52.134Z,10.45
2023-08-02T01:32:20.611Z,9.27
2023-08-02T01:34:47.220Z,10.07
2023-08-02T01:37:13.751Z,11.13
2023-08-02T01:39:40.234Z,11.00
2023-08-02T01:42:06.906Z,8.70
2023-08-02T01:44:33.449Z,10.18
2023-08-02T01:46:59.954Z,7.80
2023-08-02T01:49:26.431Z,11.10
2023-08-02T01:51:52.963Z,8.85
2023-08-02T01:54:19.730Z,10.65
2023-08-02T01:56:46.312Z,8.65
2023-08-02T01:59:13.447Z,8.82
2023-08-02T02:01:40.482Z,13.63
2023-08-02T02:04:07.241Z,9.63
2023-08-02T02:06:33.752Z,12.20
2023-08-02T02:09:00.324Z,10.73
2023-08-02T02:11:26.805Z,8.38
2023-08-02T02:13:53.262Z,11.88
2023-08-02T02:16:19.710Z,8.57
2023-08-02T02:18:46.164Z,9.15
2023-08-02T02:21:12.667Z,10.15
2023-08-02T02:23:39.169Z,7.40
2023-08-02T02:26:05.616Z,10.75
2023-08-02T02:28:32.069Z,8.95
2023-08-02T02:30:58.610Z,11.15
2023-08-02T02:33:25.095Z,8.65
2023-08-02T02:35:51.580Z,7.93
2023-08-02T02:38:18.089Z,10.50
2023-08-02T02:40:44.565Z,9.07
2023-08-02T02:43:11.012Z,9.55
2023-08-02T02:45:37.494Z,11.15
2023-08-02T02:48:04.085Z,9.40
2023-08-02T02:50:30.768Z,11.40
2023-08-02T02:52:57.291Z,9.65
2023-08-02T02:55:23.778Z,8.52
2023-08-02T02:57:52.021Z,8.98
2023-08-02T03:00:18.526Z,9.10
2023-08-02T03:02:45.146Z,8.63
2023-08-02T03:05:11.785Z,8.38
2023-08-02T03:07:38.320Z,7.72
2023-08-02T03:10:05.565Z,7.63
2023-08-02T03:12:32.096Z,7.72
2023-08-02T03:14:58.527Z,7.53
2023-08-02T03:17:25.020Z,7.03
2023-08-02T03:19:51.541Z,7.43
2023-08-02T03:22:17.997Z,5.82
2023-08-02T03:24:44.466Z,6.40
2023-08-02T03:27:10.947Z,6.72
2023-08-02T03:29:37.626Z,5.75
2023-08-02T03:32:04.547Z,6.93
2023-08-02T03:34:31.046Z,6.65
2023-08-02T03:36:57.533Z,5.80
2023-08-02T03:39:28.206Z,7.05
2023-08-02T03:41:55.977Z,5.43
2023-08-02T03:44:22.928Z,5.95
2023-08-02T03:46:49.432Z,6.43
2023-08-02T03:49:16.046Z,5.95
2023-08-02T03:51:42.621Z,5.25
2023-08-02T03:54:09.556Z,6.78
2023-08-02T03:56:36.157Z,6.28
2023-08-02T03:59:02.706Z,5.60
2023-08-02T04:01:29.301Z,5.72
2023-08-02T04:03:55.841Z,6.20
2023-08-02T04:06:22.467Z,8.10
2023-08-02T04:08:48.956Z,8.07
2023-08-02T04:11:15.444Z,6.18
2023-08-02T04:13:41.960Z,6.00
2023-08-02T04:16:08.516Z,8.77
2023-08-02T04:18:35.108Z,7.82
2023-08-02T04:21:01.685Z,6.53
2023-08-02T04:23:28.231Z,5.57
2023-08-02T04:25:55.398Z,5.53
2023-08-02T04:28:22.898Z,4.80
2023-08-02T04:30:53.320Z,5.22
2023-08-02T04:33:19.915Z,5.75
2023-08-02T04:35:46.455Z,8.73
2023-08-02T04:38:12.982Z,5.85
2023-08-02T04:40:40.004Z,5.60
2023-08-02T04:43:06.595Z,8.45
2023-08-02T04:45:33.122Z,5.28
2023-08-02T04:47:59.630Z,10.32
2023-08-02T04:50:26.161Z,5.93
2023-08-02T04:52:52.678Z,6.88
2023-08-02T04:55:19.448Z,5.53
2023-08-02T04:57:45.998Z,5.10
2023-08-02T05:00:12.854Z,8.43
2023-08-02T05:02:39.331Z,6.93
2023-08-02T05:05:06.444Z,4.80
2023-08-02T05:07:37.871Z,5.35
2023-08-02T05:10:07.431Z,5.97
2023-08-02T05:12:39.583Z,6.95
2023-08-02T05:15:07.424Z,6.15
2023-08-02T05:17:33.925Z,7.63
2023-08-02T05:20:00.676Z,4.90
2023-08-02T05:22:27.178Z,4.28
2023-08-02T05:24:54.072Z,4.22
2023-08-02T05:27:20.855Z,4.97
2023-08-02T05:29:47.408Z,7.22
2023-08-02T05:32:13.959Z,4.80
2023-08-02T05:34:40.437Z,5.68
2023-08-02T05:37:06.956Z,4.63
2023-08-02T05:39:33.399Z,5.40
2023-08-02T05:41:59.866Z,4.45
2023-08-02T05:44:26.347Z,4.18
2023-08-02T05:46:52.811Z,5.65
2023-08-02T05:49:19.374Z,6.72
2023-08-02T05:51:45.892Z,5.85
2023-08-02T05:54:12.377Z,4.85
2023-08-02T05:56:38.901Z,4.80
2023-08-02T05:59:05.409Z,5.38
2023-08-02T06:01:32.027Z,4.97
2023-08-02T06:04:00.774Z,4.65
2023-08-02T06:06:27.520Z,5.40
2023-08-02T06:08:54.090Z,4.60
2023-08-02T06:11:20.590Z,4.70
2023-08-02T06:13:47.054Z,4.70
2023-08-02T06:16:13.563Z,4.80
2023-08-02T06:18:40.181Z,5.88
2023-08-02T06:21:07.298Z,6.10
2023-08-02T06:23:34.039Z,5.47
2023-08-02T06:26:00.646Z,5.38
2023-08-02T06:28:27.167Z,6.18
2023-08-02T06:30:53.760Z,6.85
2023-08-02T06:33:20.299Z,5.55
2023-08-02T06:35:46.782Z,4.95
2023-08-02T06:38:13.241Z,7.35
2023-08-02T06:40:39.717Z,4.63
2023-08-02T06:43:06.177Z,5.95
2023-08-02T06:45:32.671Z,9.65
2023-08-02T06:47:59.484Z,9.35
2023-08-02T06:50:26.038Z,4.78
2023-08-02T06:52:52.508Z,7.45
2023-08-02T06:55:19.286Z,5.80
2023-08-02T06:57:45.804Z,5.30
2023-08-02T07:00:12.798Z,5.97
2023-08-02T07:02:39.655Z,6.60
2023-08-02T07:05:07.869Z,6.20
2023-08-02T07:07:36.285Z,4.90
2023-08-02T07:10:02.848Z,4.93
2023-08-02T07:12:29.392Z,4.07
2023-08-02T07:14:55.869Z,7.18
2023-08-02T07:17:22.550Z,6.57
2023-08-02T07:19:49.576Z,4.25
2023-08-02T07:22:18.820Z,3.92
2023-08-02T07:24:45.620Z,4.85
2023-08-02T07:27:12.143Z,4.82
2023-08-02T07:29:38.660Z,4.88
2023-08-02T07:32:05.629Z,5.05
2023-08-02T07:34:34.301Z,4.60
2023-08-02T07:37:00.809Z,4.40
2023-08-02T07:39:27.347Z,5.65
2023-08-02T07:41:53.827Z,4.57
2023-08-02T07:44:20.266Z,2.83
2023-08-02T07:46:46.938Z,3.30
2023-08-02T07:49:13.458Z,2.95
2023-08-02T07:51:40.471Z,3.58
2023-08-02T07:54:07.265Z,3.65
2023-08-02T07:56:33.733Z,3.88
2023-08-02T07:59:02.461Z,5.53
2023-08-02T08:01:30.738Z,3.53
2023-08-02T08:03:57.377Z,6.40
2023-08-02T08:06:25.340Z,7.15
2023-08-02T08:08:52.093Z,4.32
2023-08-02T08:11:18.865Z,3.35
2023-08-02T08:13:45.343Z,4.28
2023-08-02T08:16:11.854Z,3.00
2023-08-02T08:18:38.348Z,4.72
2023-08-02T08:21:05.779Z,3.88
2023-08-02T08:23:32.833Z,3.63
2023-08-02T08:25:59.323Z,3.78
2023-08-02T08:28:25.971Z,3.85
2023-08-02T08:31:03.059Z,4.85
2023-08-02T08:33:30.706Z,4.68
2023-08-02T08:35:57.221Z,4.05
2023-08-02T08:38:23.998Z,3.97
2023-08-02T08:40:54.906Z,4.05
2023-08-02T08:45:53.369Z,3.60
2023-08-02T08:48:20.129Z,3.05
2023-08-02T08:50:47.848Z,3.47
2023-08-02T08:53:24.306Z,3.80
2023-08-02T08:55:51.603Z,4.00
2023-08-02T08:58:18.516Z,7.35
2023-08-02T09:00:45.937Z,4.65
2023-08-02T09:03:16.261Z,4.28
2023-08-02T09:05:43.219Z,3.63
2023-08-02T09:08:09.761Z,3.95
2023-08-02T09:10:36.443Z,5.68
2023-08-02T09:13:03.353Z,4.53
2023-08-02T09:15:29.817Z,4.60
2023-08-02T09:17:56.780Z,3.63
2023-08-02T09:20:26.467Z,4.97
2023-08-02T09:22:53.845Z,4.20
2023-08-02T09:25:25.694Z,8.27
2023-08-02T09:27:53.612Z,4.22
2023-08-02T09:30:31.499Z,5.03
2023-08-02T09:33:08.764Z,4.22
2023-08-02T09:35:48.769Z,6.07
2023-08-02T09:38:17.471Z,3.55
2023-08-02T09:41:22.716Z,3.40
2023-08-02T09:43:35.002Z,3.47
2023-08-02T09:46:01.746Z,3.92
2023-08-02T09:48:37.542Z,4.93
2023-08-02T09:51:04.893Z,3.47
2023-08-02T09:53:32.406Z,3.75
2023-08-02T09:56:01.369Z,2.97
2023-08-02T09:58:31.273Z,3.83
2023-08-02T10:00:58.944Z,2.95
2023-08-02T10:03:27.859Z,3.60
2023-08-02T10:05:59.403Z,3.53
2023-08-02T10:08:30.788Z,4.05
2023-08-02T10:10:58.807Z,3.10
2023-08-02T10:13:34.008Z,5.22
2023-08-02T10:16:00.893Z,3.88
2023-08-02T10:18:29.413Z,3.85
2023-08-02T10:20:56.730Z,3.88
2023-08-02T10:23:23.260Z,3.30
2023-08-02T10:25:50.856Z,2.75
2023-08-02T10:28:17.816Z,3.30
2023-08-02T10:30:44.949Z,4.15
2023-08-02T10:33:18.820Z,4.25
2023-08-02T10:35:59.969Z,4.13
2023-08-02T10:38:28.111Z,3.67
2023-08-02T10:41:15.189Z,3.67
2023-08-02T10:44:01.599Z,3.17
2023-08-02T10:46:30.626Z,2.78
2023-08-02T10:49:17.413Z,3.22
2023-08-02T10:51:46.050Z,2.58
2023-08-02T10:54:15.353Z,2.65
2023-08-02T10:56:57.785Z,3.22
2023-08-02T10:59:24.299Z,3.47
2023-08-02T11:01:56.547Z,2.97
2023-08-02T11:04:24.249Z,3.25
2023-08-02T11:06:51.816Z,4.43
2023-08-02T11:09:18.862Z,3.28
2023-08-02T11:11:46.640Z,2.67
2023-08-02T11:14:26.448Z,2.90
2023-08-02T11:16:54.466Z,3.40
2023-08-02T11:19:25.753Z,3.25
2023-08-02T11:21:56.728Z,3.13
2023-08-02T11:24:27.747Z,3.33
2023-08-02T11:27:00.840Z,2.63
2023-08-02T11:29:27.748Z,2.95
2023-08-02T11:34:29.015Z,3.17
2023-08-02T11:36:55.999Z,3.70
2023-08-02T11:39:22.604Z,3.65
2023-08-02T11:42:03.541Z,2.45
2023-08-02T11:44:30.724Z,2.38
2023-08-02T11:46:58.546Z,2.13
2023-08-02T11:49:25.392Z,3.58
2023-08-02T11:51:51.924Z,2.78
2023-08-02T11:54:18.764Z,2.55
2023-08-02T11:56:46.048Z,2.50
2023-08-02T11:59:13.316Z,2.22
2023-08-02T12:01:43.557Z,4.22
2023-08-02T12:04:10.669Z,3.80
2023-08-02T12:06:50.439Z,2.70
2023-08-02T12:09:19.103Z,3.38
2023-08-02T12:11:46.800Z,4.28
2023-08-02T12:14:13.346Z,3.30
2023-08-02T12:16:42.827Z,3.90
2023-08-02T12:19:10.460Z,2.58
2023-08-02T12:21:38.202Z,4.03
2023-08-02T12:24:17.686Z,3.53
2023-08-02T12:26:44.907Z,3.75
2023-08-02T12:29:24.848Z,3.03
2023-08-02T12:31:55.057Z,3.30
2023-08-02T12:34:21.677Z,3.47
2023-08-02T12:36:48.808Z,3.10
2023-08-02T12:39:15.332Z,2.00
2023-08-02T12:41:41.856Z,2.90
2023-08-02T12:44:08.311Z,3.03
2023-08-02T12:46:34.829Z,2.30
2023-08-02T12:49:01.341Z,3.15
2023-08-02T12:51:27.852Z,3.45
2023-08-02T12:53:54.336Z,2.45
2023-08-02T12:56:20.842Z,2.80
2023-08-02T12:58:47.320Z,4.00
2023-08-02T13:01:13.928Z,2.83
2023-08-02T13:03:40.801Z,3.53
2023-08-02T13:06:07.458Z,3.22
2023-08-02T13:08:34.030Z,3.00
2023-08-02T13:11:02.325Z,2.65
2023-08-02T13:13:28.833Z,2.63
2023-08-02T13:15:55.346Z,4.88
2023-08-02T13:18:21.928Z,3.25
2023-08-02T13:20:48.433Z,2.95
2023-08-02T13:23:14.969Z,2.67
2023-08-02T13:25:41.421Z,2.72
2023-08-02T13:28:08.117Z,3.10
2023-08-02T13:30:35.650Z,3.42
2023-08-02T13:33:02.890Z,3.78
2023-08-02T13:35:29.496Z,2.33
2023-08-02T13:37:56.307Z,2.78
2023-08-02T13:40:22.745Z,2.80
2023-08-02T13:42:49.203Z,2.50
2023-08-02T13:45:15.712Z,2.40
2023-08-02T13:47:42.292Z,3.50
2023-08-02T13:50:09.248Z,2.45
2023-08-02T13:52:35.885Z,3.45
2023-08-02T13:55:03.296Z,2.80
2023-08-02T13:57:29.853Z,3.75
2023-08-02T13:59:56.480Z,4.00
2023-08-02T14:02:23.020Z,2.85
2023-08-02T14:04:50.070Z,4.28
2023-08-02T14:07:16.766Z,3.88
2023-08-02T14:09:43.316Z,3.17
2023-08-02T14:12:16.537Z,3.53
2023-08-02T14:14:43.946Z,4.43
2023-08-02T14:17:10.804Z,2.83
2023-08-02T14:19:37.309Z,4.15
2023-08-02T14:22:04.824Z,3.45
2023-08-02T14:24:31.295Z,2.45
2023-08-02T14:26:57.942Z,2.67
2023-08-02T14:29:24.410Z,3.53
2023-08-02T14:31:50.905Z,3.30
2023-08-02T14:34:22.949Z,2.63
2023-08-02T14:36:49.596Z,3.35
2023-08-02T14:39:16.405Z,3.15
2023-08-02T14:41:43.108Z,2.67
2023-08-02T14:44:09.665Z,2.45
2023-08-02T14:46:36.490Z,3.90
2023-08-02T14:49:03.041Z,2.28
2023-08-02T14:51:29.534Z,3.15
2023-08-02T14:54:07.573Z,3.00
2023-08-02T14:56:38.815Z,2.35
2023-08-02T14:59:05.321Z,2.75
2023-08-02T15:01:31.858Z,3.08
2023-08-02T15:03:58.307Z,2.10
2023-08-02T15:06:26.389Z,2.50
2023-08-02T15:08:56.306Z,2.75
2023-08-02T15:11:22.917Z,2.90
2023-08-02T15:13:49.661Z,2.97
2023-08-02T15:16:16.252Z,2.38
2023-08-02T15:18:42.875Z,2.72
2023-08-02T15:21:09.473Z,3.15
2023-08-02T15:23:36.049Z,5.07
2023-08-02T15:26:02.674Z,2.30
2023-08-02T15:28:29.227Z,3.88
2023-08-02T15:30:55.699Z,2.65
2023-08-02T15:33:22.207Z,3.65
2023-08-02T15:35:48.705Z,2.83
2023-08-02T15:38:15.263Z,2.70
2023-08-02T15:40:41.818Z,3.03
2023-08-02T15:43:10.598Z,2.35
2023-08-02T15:45:37.103Z,2.70
2023-08-02T15:48:03.775Z,3.25
2023-08-02T15:50:30.523Z,2.97
2023-08-02T15:52:57.060Z,4.30
2023-08-02T15:55:24.233Z,2.70
2023-08-02T15:57:50.960Z,3.70
2023-08-02T16:00:18.809Z,3.83
2023-08-02T16:02:46.029Z,3.30
2023-08-02T16:05:12.823Z,3.53
2023-08-02T16:07:39.343Z,4.30
2023-08-02T16:10:06.784Z,2.80
2023-08-02T16:12:33.286Z,3.03
2023-08-02T16:15:00.391Z,2.33
2023-08-02T16:17:26.969Z,3.33
2023-08-02T16:19:53.616Z,6.82
2023-08-02T16:22:20.211Z,2.72
2023-08-02T16:24:46.670Z,2.80
2023-08-02T16:27:13.704Z,2.92
2023-08-02T16:29:40.287Z,3.20
2023-08-02T16:32:06.899Z,3.15
2023-08-02T16:34:33.492Z,2.90
2023-08-02T16:36:59.999Z,8.18
2023-08-02T16:39:26.501Z,3.50
2023-08-02T16:41:53.014Z,2.55
2023-08-02T16:44:19.576Z,3.45
2023-08-02T16:46:46.098Z,3.78
2023-08-02T16:49:12.627Z,3.17
2023-08-02T16:51:39.148Z,3.45
2023-08-02T16:54:05.835Z,3.03
2023-08-02T16:56:32.339Z,2.78
2023-08-02T16:58:58.862Z,4.20
2023-08-02T17:01:26.299Z,4.07
2023-08-02T17:03:53.216Z,5.00
2023-08-02T17:06:20.030Z,3.13
2023-08-02T17:08:46.543Z,2.95
2023-08-02T17:11:13.069Z,3.15
2023-08-02T17:13:39.608Z,3.30
2023-08-02T17:16:06.440Z,4.20
2023-08-02T17:18:33.073Z,4.10
2023-08-02T17:20:59.590Z,3.38
2023-08-02T17:23:26.192Z,2.97
2023-08-02T17:25:52.728Z,3.05
2023-08-02T17:28:19.254Z,3.75
2023-08-02T17:30:46.681Z,3.65
2023-08-02T17:33:13.512Z,3.15
2023-08-02T17:35:40.192Z,5.40
2023-08-02T17:38:06.815Z,3.25
2023-08-02T17:40:33.526Z,2.92
2023-08-02T17:43:00.110Z,3.38
2023-08-02T17:45:27.896Z,3.10
2023-08-02T17:47:55.251Z,5.20
2023-08-02T17:50:21.829Z,3.65
2023-08-02T17:52:48.304Z,2.67
2023-08-02T17:55:14.914Z,5.18
2023-08-02T17:57:41.505Z,3.85
2023-08-02T18:00:09.062Z,3.50
2023-08-02T18:02:36.359Z,3.78
2023-08-02T18:05:03.055Z,3.83
2023-08-02T18:07:29.595Z,4.10
2023-08-02T18:09:56.058Z,4.00
2023-08-02T18:12:22.605Z,3.70
2023-08-02T18:14:49.176Z,3.45
2023-08-02T18:17:15.744Z,3.95
2023-08-02T18:19:42.383Z,4.45
2023-08-02T18:22:09.001Z,4.05
2023-08-02T18:24:39.194Z,4.30
2023-08-02T18:27:06.473Z,3.15
2023-08-02T18:29:32.972Z,2.90
2023-08-02T18:31:59.516Z,3.15
2023-08-02T18:34:26.041Z,3.17
2023-08-02T18:36:52.575Z,4.03
2023-08-02T18:39:19.056Z,3.28
2023-08-02T18:41:46.147Z,5.55
2023-08-02T18:44:12.724Z,4.00
2023-08-02T18:46:39.278Z,3.10
2023-08-02T18:49:06.600Z,7.47
2023-08-02T18:51:33.081Z,3.75
2023-08-02T18:53:59.533Z,3.65
2023-08-02T18:56:26.084Z,4.20
2023-08-02T18:58:53.175Z,3.60
2023-08-02T19:01:19.968Z,3.88
2023-08-02T19:03:47.093Z,3.00
2023-08-02T19:06:15.030Z,4.13
2023-08-02T19:08:45.445Z,4.07
2023-08-02T19:13:44.885Z,3.47
2023-08-02T19:16:11.579Z,4.20
2023-08-02T19:18:38.239Z,3.95
2023-08-02T19:21:04.764Z,4.05
2023-08-02T19:23:35.992Z,3.53
2023-08-02T19:26:02.815Z,2.70
2023-08-02T19:28:30.597Z,4.57
2023-08-02T19:30:57.106Z,3.95
2023-08-02T19:33:23.574Z,3.80
2023-08-02T19:35:50.169Z,4.65
2023-08-02T19:38:21.857Z,5.53
2023-08-02T19:40:59.409Z,3.53
2023-08-02T19:43:26.804Z,4.35
2023-08-02T19:45:57.891Z,6.13
2023-08-02T19:48:25.445Z,6.38
2023-08-02T19:50:52.056Z,4.05
2023-08-02T19:53:18.886Z,5.32
2023-08-02T19:55:45.956Z,5.10
2023-08-02T19:58:12.801Z,6.70
2023-08-02T20:00:49.082Z,4.60
2023-08-02T20:03:15.714Z,5.30
2023-08-02T20:05:53.100Z,5.45
2023-08-02T20:08:22.281Z,5.03
2023-08-02T20:10:54.064Z,4.63
2023-08-02T20:13:22.383Z,5.90
2023-08-02T20:15:49.271Z,5.22
2023-08-02T20:18:16.677Z,5.68
2023-08-02T20:20:44.639Z,5.63
2023-08-02T20:23:12.759Z,4.90
2023-08-02T20:25:39.865Z,4.43
2023-08-02T20:28:09.813Z,5.22
2023-08-02T20:30:36.730Z,4.43
2023-08-02T20:33:12.386Z,7.15
2023-08-02T20:35:43.652Z,5.47
2023-08-02T20:38:14.563Z,6.30
2023-08-02T20:43:13.268Z,4.82
2023-08-02T20:45:45.091Z,5.35
2023-08-02T20:48:13.919Z,5.07
2023-08-02T20:50:50.889Z,4.72
2023-08-02T20:53:20.162Z,4.38
2023-08-02T20:55:46.669Z,3.60
2023-08-02T20:58:20.697Z,4.35
2023-08-02T21:00:55.601Z,4.68
2023-08-02T21:03:22.944Z,4.38
2023-08-02T21:05:49.879Z,4.43
2023-08-02T21:08:16.508Z,6.97
2023-08-02T21:10:43.135Z,5.28
2023-08-02T21:13:09.652Z,5.18
2023-08-02T21:15:37.392Z,4.20
2023-08-02T21:18:04.043Z,4.78
2023-08-02T21:20:33.534Z,4.80
2023-08-02T21:23:09.106Z,4.53
2023-08-02T21:25:38.602Z,5.85
2023-08-02T21:28:13.622Z,5.43
2023-08-02T21:30:40.762Z,6.15
2023-08-02T21:33:09.846Z,6.05
2023-08-02T21:35:36.457Z,5.10
2023-08-02T21:38:03.314Z,5.13
2023-08-02T21:40:30.602Z,4.63
2023-08-02T21:42:57.123Z,4.82
2023-08-02T21:45:23.614Z,4.00
2023-08-02T21:47:51.692Z,4.20
2023-08-02T21:50:20.417Z,5.22
2023-08-02T21:52:50.214Z,4.50
2023-08-02T21:55:18.415Z,5.40
2023-08-02T21:57:45.066Z,6.15
2023-08-02T22:00:18.341Z,4.65
2023-08-02T22:02:44.857Z,6.10
2023-08-02T22:05:22.809Z,4.30
2023-08-02T22:07:49.275Z,4.85
2023-08-02T22:10:19.126Z,4.30
2023-08-02T22:12:48.796Z,6.75
2023-08-02T22:15:16.881Z,4.57
2023-08-02T22:17:43.592Z,4.03
2023-08-02T22:20:10.372Z,5.93
2023-08-02T22:22:36.833Z,5.35
2023-08-02T22:25:03.491Z,4.88
2023-08-02T22:27:30.097Z,6.20
2023-08-02T22:29:59.647Z,5.97
2023-08-02T22:32:27.465Z,5.07
2023-08-02T22:34:54.120Z,4.18
2023-08-02T22:37:20.674Z,8.98
2023-08-02T22:39:47.149Z,4.65
2023-08-02T22:42:13.596Z,4.93
2023-08-02T22:44:40.095Z,6.88
2023-08-02T22:47:06.694Z,3.95
2023-08-02T22:50:47.226Z,4.88
2023-08-02T22:54:52.125Z,4.00
2023-08-02T22:57:29.862Z,4.45
2023-08-02T22:59:57.113Z,3.33
2023-08-02T23:02:34.054Z,3.72
2023-08-02T23:07:34.637Z,3.72
2023-08-02T23:10:03.960Z,3.65
2023-08-02T23:12:38.568Z,4.40
2023-08-02T23:15:14.141Z,4.40
2023-08-02T23:17:40.739Z,3.00
2023-08-02T23:20:36.394Z,3.63
2023-08-02T23:23:14.087Z,3.38
2023-08-02T23:25:40.570Z,3.67
2023-08-02T23:28:10.164Z,3.25
2023-08-02T23:30:36.677Z,2.88
2023-08-02T23:33:08.930Z,3.20
2023-08-02T23:35:35.456Z,3.85
2023-08-02T23:38:01.955Z,2.95
2023-08-02T23:40:28.457Z,3.72
2023-08-02T23:42:55.079Z,3.00
2023-08-02T23:45:21.778Z,2.83
2023-08-02T23:47:48.336Z,3.83
2023-08-02T23:50:14.909Z,3.45
2023-08-02T23:52:41.367Z,5.07
2023-08-02T23:55:08.160Z,3.08
2023-08-02T23:57:34.610Z,3.53
